Time,TemperatureF,DewpointF,PressureIn,WindDirection,WindDirectionDegrees,WindSpeedMPH,WindSpeedGustMPH,Humidity,HourlyPrecipIn,Conditions,Clouds,dailyrainin,SoftwareType,DateUTC
2013-01-07 00:04:00,43.7,43.7,30.14,SW,227,0.0,0.0,100,0.03,,OVC033,0.00,VWS V13.01,2013-01-07 08:04:00,
2013-01-07 00:09:00,43.7,43.7,30.14,SW,227,0.0,0.0,100,0.04,,OVC033,0.01,VWS V13.01,2013-01-07 08:09:00,
2013-01-07 00:14:00,43.8,43.8,30.15,SW,227,0.0,0.0,100,0.04,,OVC033,0.01,VWS V13.01,2013-01-07 08:14:00,
2013-01-07 00:19:00,43.8,43.8,30.15,SW,227,0.0,0.0,100,0.04,,OVC033,0.01,VWS V13.01,2013-01-07 08:19:00,
2013-01-07 00:24:00,43.7,43.7,30.15,SW,227,0.0,0.0,100,0.05,,OVC033,0.02,VWS V13.01,2013-01-07 08:24:00,
2013-01-07 00:29:00,43.7,43.7,30.15,SW,227,0.0,0.0,100,0.05,,OVC033,0.02,VWS V13.01,2013-01-07 08:29:00,
2013-01-07 00:34:00,43.8,43.8,30.15,SW,227,0.0,0.0,100,0.04,,OVC033,0.02,VWS V13.01,2013-01-07 08:34:00,
2013-01-07 00:39:00,43.8,43.8,30.15,SW,227,0.0,0.0,100,0.05,,OVC033,0.03,VWS V13.01,2013-01-07 08:39:00,
2013-01-07 00:44:00,43.8,43.8,30.14,SW,227,0.0,0.0,100,0.05,,OVC028,0.03,VWS V13.01,2013-01-07 08:44:00,
2013-01-07 00:49:00,43.8,43.8,30.13,SW,227,0.0,0.0,100,0.05,,OVC028,0.04,VWS V13.01,2013-01-07 08:49:00,
2013-01-07 00:54:00,43.8,43.8,30.13,SW,227,0.0,0.0,100,0.05,,OVC028,0.04,VWS V13.01,2013-01-07 08:54:00,
2013-01-07 00:59:00,43.8,43.8,30.12,SW,227,0.0,0.0,100,0.05,,OVC028,0.04,VWS V13.01,2013-01-07 08:59:00,
2013-01-07 01:04:00,43.8,43.8,30.13,SW,227,0.0,0.0,100,0.05,,OVC028,0.05,VWS V13.01,2013-01-07 09:04:00,
2013-01-07 01:09:00,43.8,43.8,30.13,SW,227,0.0,0.0,100,0.05,,OVC028,0.05,VWS V13.01,2013-01-07 09:09:00,
2013-01-07 01:14:00,43.8,43.8,30.13,SW,227,0.0,0.0,100,0.05,,OVC028,0.05,VWS V13.01,2013-01-07 09:14:00,
2013-01-07 01:20:00,43.8,43.8,30.12,SW,227,0.0,0.0,100,0.04,,OVC028,0.05,VWS V13.01,2013-01-07 09:20:00,
2013-01-07 01:25:00,43.8,43.8,30.12,SW,227,0.0,0.0,100,0.04,,OVC028,0.05,VWS V13.01,2013-01-07 09:25:00,
2013-01-07 01:30:00,43.8,43.8,30.12,SW,227,0.0,0.0,100,0.04,,OVC028,0.05,VWS V13.01,2013-01-07 09:30:00,
2013-01-07 01:35:00,43.8,43.8,30.13,SW,227,0.0,0.0,100,0.03,,OVC028,0.05,VWS V13.01,2013-01-07 09:35:00,
2013-01-07 01:40:00,43.8,43.8,30.14,SW,227,0.0,0.0,100,0.04,,OVC024,0.06,VWS V13.01,2013-01-07 09:40:00,
2013-01-07 01:45:00,43.8,43.8,30.15,SW,227,0.0,0.0,100,0.04,,OVC024,0.06,VWS V13.01,2013-01-07 09:45:00,
2013-01-07 01:50:00,43.9,43.9,30.15,SW,227,0.0,0.0,100,0.04,,OVC024,0.07,VWS V13.01,2013-01-07 09:50:00,
2013-01-07 01:55:00,43.9,43.9,30.15,SW,227,0.0,0.0,100,0.04,,OVC024,0.08,VWS V13.01,2013-01-07 09:55:00,
2013-01-07 02:00:00,43.9,43.9,30.14,SW,227,0.0,0.0,100,0.05,,OVC024,0.08,VWS V13.01,2013-01-07 10:00:00,
2013-01-07 02:05:00,43.9,43.9,30.14,SW,227,0.0,0.0,100,0.04,,OVC024,0.08,VWS V13.01,2013-01-07 10:05:00,
2013-01-07 02:10:00,43.9,43.9,30.13,SW,227,1.0,1.0,100,0.05,,OVC024,0.09,VWS V13.01,2013-01-07 10:10:00,
2013-01-07 02:15:00,44.0,44.0,30.13,SW,227,0.0,0.0,100,0.05,,OVC024,0.09,VWS V13.01,2013-01-07 10:15:00,
2013-01-07 02:20:00,44.0,44.0,30.13,SW,227,0.0,0.0,100,0.04,,OVC024,0.09,VWS V13.01,2013-01-07 10:20:00,
2013-01-07 02:25:00,44.0,44.0,30.13,SW,227,0.0,0.0,100,0.04,,OVC024,0.09,VWS V13.01,2013-01-07 10:25:00,
2013-01-07 02:30:00,44.0,44.0,30.14,SW,227,0.0,0.0,100,0.04,,OVC024,0.09,VWS V13.01,2013-01-07 10:30:00,
2013-01-07 02:35:00,44.0,44.0,30.14,SW,227,0.0,0.0,100,0.04,,OVC024,0.09,VWS V13.01,2013-01-07 10:35:00,
2013-01-07 02:41:00,44.0,44.0,30.14,SW,227,0.0,0.0,100,0.04,,OVC022,0.09,VWS V13.01,2013-01-07 10:41:00,
2013-01-07 02:46:00,44.0,44.0,30.13,SW,227,0.0,0.0,100,0.04,,OVC022,0.10,VWS V13.01,2013-01-07 10:46:00,
2013-01-07 02:51:00,44.0,44.0,30.14,SW,227,0.0,0.0,100,0.04,,OVC022,0.10,VWS V13.01,2013-01-07 10:51:00,
2013-01-07 02:56:00,44.0,44.0,30.14,SW,227,0.0,0.0,100,0.04,,OVC022,0.10,VWS V13.01,2013-01-07 10:56:00,
2013-01-07 03:01:00,44.1,44.1,30.14,SW,227,0.0,0.0,100,0.02,,OVC022,0.10,VWS V13.01,2013-01-07 11:01:00,
2013-01-07 03:06:00,44.1,44.1,30.13,SW,227,0.0,0.0,100,0.03,,OVC022,0.11,VWS V13.01,2013-01-07 11:06:00,
2013-01-07 03:11:00,44.1,44.1,30.14,SW,227,0.0,0.0,100,0.03,,OVC022,0.11,VWS V13.01,2013-01-07 11:11:00,
2013-01-07 03:16:00,44.1,44.1,30.14,SW,227,0.0,0.0,100,0.02,,OVC022,0.11,VWS V13.01,2013-01-07 11:16:00,
2013-01-07 03:21:00,44.2,44.2,30.13,SW,227,0.0,0.0,100,0.02,,OVC022,0.12,VWS V13.01,2013-01-07 11:21:00,
2013-01-07 03:26:00,44.2,44.2,30.12,SW,227,1.0,2.0,100,0.03,,OVC022,0.12,VWS V13.01,2013-01-07 11:26:00,
2013-01-07 03:31:00,44.2,44.2,30.12,SW,227,0.0,1.0,100,0.03,,OVC022,0.12,VWS V13.01,2013-01-07 11:31:00,
2013-01-07 03:36:00,44.2,44.2,30.12,SW,227,0.0,2.0,100,0.03,,OVC022,0.12,VWS V13.01,2013-01-07 11:36:00,
2013-01-07 03:41:00,44.3,44.3,30.12,SW,227,0.0,2.0,100,0.03,,OVC018,0.12,VWS V13.01,2013-01-07 11:41:00,
2013-01-07 03:46:00,44.6,44.6,30.12,WSW,241,0.0,2.0,100,0.02,,OVC018,0.12,VWS V13.01,2013-01-07 11:46:00,
2013-01-07 03:51:00,44.6,44.6,30.13,WSW,241,0.0,2.0,100,0.02,,OVC018,0.12,VWS V13.01,2013-01-07 11:51:00,
2013-01-07 03:56:00,44.5,44.5,30.12,SW,230,0.0,2.0,100,0.02,,OVC018,0.12,VWS V13.01,2013-01-07 11:56:00,
2013-01-07 04:01:00,44.5,44.5,30.13,SW,230,2.0,2.0,100,0.02,,OVC018,0.12,VWS V13.01,2013-01-07 12:01:00,
2013-01-07 04:06:00,44.5,44.5,30.12,SW,220,3.0,3.0,100,0.03,,OVC018,0.13,VWS V13.01,2013-01-07 12:06:00,
2013-01-07 04:11:00,44.6,44.6,30.12,SW,220,2.0,3.0,100,0.03,,OVC018,0.13,VWS V13.01,2013-01-07 12:11:00,
2013-01-07 04:16:00,44.7,44.7,30.12,SSW,205,2.0,3.0,100,0.02,,OVC018,0.13,VWS V13.01,2013-01-07 12:16:00,
2013-01-07 04:21:00,45.4,45.4,30.12,SSW,200,0.0,3.0,100,0.03,,OVC018,0.14,VWS V13.01,2013-01-07 12:21:00,
2013-01-07 04:26:00,45.2,45.2,30.12,SSW,196,0.0,3.0,100,0.03,,OVC018,0.14,VWS V13.01,2013-01-07 12:26:00,
2013-01-07 04:31:00,45.2,45.2,30.12,SSW,207,0.0,2.0,100,0.02,,OVC018,0.14,VWS V13.01,2013-01-07 12:31:00,
2013-01-07 04:36:00,45.4,45.4,30.12,SSW,211,0.0,2.0,100,0.02,,OVC018,0.14,VWS V13.01,2013-01-07 12:36:00,
2013-01-07 04:42:00,45.3,45.3,30.11,SW,215,1.0,2.0,100,0.02,,OVC018,0.15,VWS V13.01,2013-01-07 12:42:00,
2013-01-07 04:47:00,45.8,45.8,30.11,SSW,207,1.0,2.0,100,0.03,,OVC018,0.15,VWS V13.01,2013-01-07 12:47:00,
2013-01-07 04:52:00,45.9,45.9,30.11,SSW,211,2.0,4.0,100,0.03,,OVC018,0.15,VWS V13.01,2013-01-07 12:52:00,
2013-01-07 04:57:00,45.6,45.6,30.10,SSW,211,1.0,4.0,100,0.03,,OVC018,0.15,VWS V13.01,2013-01-07 12:57:00,
2013-01-07 05:02:00,45.6,45.6,30.10,SSW,211,1.0,1.0,100,0.03,,OVC018,0.15,VWS V13.01,2013-01-07 13:02:00,
2013-01-07 05:07:00,45.8,45.8,30.11,SSW,204,2.0,2.0,100,0.03,,OVC018,0.15,VWS V13.01,2013-01-07 13:07:00,
2013-01-07 05:12:00,45.6,45.6,30.10,West,277,0.0,3.0,100,0.03,,OVC018,0.15,VWS V13.01,2013-01-07 13:12:00,
2013-01-07 05:17:00,45.5,45.5,30.10,WSW,250,0.0,1.0,100,0.02,,OVC018,0.15,VWS V13.01,2013-01-07 13:17:00,
2013-01-07 05:22:00,45.7,45.7,30.10,SSW,203,2.0,4.0,100,0.02,,OVC018,0.15,VWS V13.01,2013-01-07 13:22:00,
2013-01-07 05:27:00,45.8,45.8,30.11,SW,215,2.0,4.0,100,0.03,,OVC018,0.16,VWS V13.01,2013-01-07 13:27:00,
2013-01-07 05:32:00,45.7,45.7,30.10,SW,215,1.0,1.0,100,0.02,,OVC018,0.16,VWS V13.01,2013-01-07 13:32:00,
2013-01-07 05:37:00,46.3,46.3,30.11,SSW,209,0.0,6.0,100,0.02,,OVC018,0.16,VWS V13.01,2013-01-07 13:37:00,
2013-01-07 05:42:00,46.4,46.4,30.11,SSW,209,3.0,6.0,100,0.02,,OVC060,0.16,VWS V13.01,2013-01-07 13:42:00,
2013-01-07 05:47:00,46.2,46.2,30.10,SSW,209,1.0,1.0,100,0.02,,OVC060,0.17,VWS V13.01,2013-01-07 13:47:00,
2013-01-07 05:53:00,46.3,46.3,30.10,WSW,256,0.0,3.0,100,0.02,,OVC060,0.17,VWS V13.01,2013-01-07 13:53:00,
2013-01-07 05:58:00,46.5,46.5,30.10,SW,216,1.0,4.0,100,0.02,,OVC060,0.17,VWS V13.01,2013-01-07 13:58:00,
2013-01-07 06:03:00,46.6,46.6,30.11,SW,217,0.0,2.0,100,0.03,,OVC060,0.18,VWS V13.01,2013-01-07 14:03:00,
2013-01-07 06:08:00,46.6,46.6,30.12,ENE,78,2.0,2.0,100,0.03,,OVC060,0.18,VWS V13.01,2013-01-07 14:08:00,
2013-01-07 06:13:00,46.5,46.5,30.12,ENE,63,0.0,3.0,100,0.04,,OVC060,0.19,VWS V13.01,2013-01-07 14:13:00,
2013-01-07 06:18:00,46.5,46.5,30.12,ENE,63,0.0,0.0,100,0.04,,OVC060,0.19,VWS V13.01,2013-01-07 14:18:00,
2013-01-07 06:23:00,46.4,46.4,30.12,ENE,63,0.0,0.0,100,0.05,,OVC060,0.20,VWS V13.01,2013-01-07 14:23:00,
2013-01-07 06:28:00,46.3,46.3,30.12,ENE,63,0.0,0.0,100,0.05,,OVC060,0.20,VWS V13.01,2013-01-07 14:28:00,
2013-01-07 06:34:00,46.4,46.4,30.12,ENE,63,0.0,0.0,100,0.05,,OVC060,0.21,VWS V13.01,2013-01-07 14:34:00,
2013-01-07 06:39:00,46.5,46.5,30.12,West,259,0.0,3.0,100,0.05,,OVC060,0.21,VWS V13.01,2013-01-07 14:39:00,
2013-01-07 06:44:00,46.8,46.8,30.11,WNW,293,0.0,3.0,100,0.06,,-RA,0.22,VWS V13.01,2013-01-07 14:44:00,
2013-01-07 06:49:00,46.8,46.8,30.11,WSW,241,0.0,2.0,100,0.07,,-RA,0.23,VWS V13.01,2013-01-07 14:49:00,
2013-01-07 06:54:00,46.7,46.7,30.11,WSW,241,0.0,2.0,100,0.07,,-RA,0.23,VWS V13.01,2013-01-07 14:54:00,
2013-01-07 06:59:00,46.8,46.8,30.12,WSW,241,0.0,2.0,100,0.07,,-RA,0.23,VWS V13.01,2013-01-07 14:59:00,
2013-01-07 07:04:00,46.8,46.8,30.12,WSW,241,0.0,1.0,100,0.07,,-RA,0.24,VWS V13.01,2013-01-07 15:04:00,
2013-01-07 07:09:00,46.8,46.8,30.12,WSW,241,0.0,1.0,100,0.08,,-RA,0.25,VWS V13.01,2013-01-07 15:09:00,
2013-01-07 07:14:00,46.8,46.8,30.12,NW,309,0.0,0.0,100,0.08,,-RA,0.25,VWS V13.01,2013-01-07 15:14:00,
2013-01-07 07:19:00,46.9,46.9,30.12,West,278,0.0,1.0,100,0.06,,-RA,0.25,VWS V13.01,2013-01-07 15:19:00,
2013-01-07 07:25:00,47.1,47.1,30.12,West,279,0.0,1.0,100,0.07,,-RA,0.26,VWS V13.01,2013-01-07 15:25:00,
2013-01-07 07:30:00,47.1,47.1,30.12,West,274,0.0,0.0,100,0.07,,-RA,0.26,VWS V13.01,2013-01-07 15:30:00,
2013-01-07 07:35:00,47.1,47.1,30.12,West,274,1.0,1.0,100,0.07,,-RA,0.27,VWS V13.01,2013-01-07 15:35:00,
2013-01-07 07:40:00,47.2,47.2,30.12,West,274,0.0,1.0,100,0.07,,-RA,0.27,VWS V13.01,2013-01-07 15:40:00,
2013-01-07 07:45:00,47.5,47.5,30.12,SW,229,0.0,3.0,100,0.07,,-RA,0.27,VWS V13.01,2013-01-07 15:45:00,
2013-01-07 07:50:00,47.9,47.9,30.12,West,269,0.0,3.0,100,0.06,,-RA,0.28,VWS V13.01,2013-01-07 15:50:00,
2013-01-07 07:55:00,48.2,48.2,30.14,NNW,330,0.0,5.0,100,0.06,,-RA,0.28,VWS V13.01,2013-01-07 15:55:00,
2013-01-07 08:00:00,48.2,48.2,30.14,North,355,0.0,1.0,100,0.06,,-RA,0.29,VWS V13.01,2013-01-07 16:00:00,
2013-01-07 08:05:00,48.2,48.2,30.15,North,355,1.0,1.0,100,0.06,,-RA,0.29,VWS V13.01,2013-01-07 16:05:00,
2013-01-07 08:10:00,48.0,48.0,30.15,NE,48,0.0,2.0,100,0.06,,-RA,0.29,VWS V13.01,2013-01-07 16:10:00,
2013-01-07 08:15:00,47.9,47.9,30.14,NE,48,0.0,0.0,100,0.05,,-RA,0.30,VWS V13.01,2013-01-07 16:15:00,
2013-01-07 08:21:00,47.8,47.8,30.14,NW,324,1.0,2.0,100,0.05,,-RA,0.30,VWS V13.01,2013-01-07 16:21:00,
2013-01-07 08:26:00,47.9,47.9,30.14,ESE,109,3.0,3.0,100,0.06,,-RA,0.31,VWS V13.01,2013-01-07 16:26:00,
2013-01-07 08:31:00,48.2,48.2,30.13,NNE,30,1.0,3.0,100,0.05,,-RA,0.31,VWS V13.01,2013-01-07 16:31:00,
2013-01-07 08:36:00,48.5,48.5,30.14,SE,144,0.0,4.0,100,0.05,,-RA,0.31,VWS V13.01,2013-01-07 16:36:00,
2013-01-07 08:41:00,48.6,48.6,30.14,NNW,336,1.0,4.0,100,0.05,,OVC042,0.31,VWS V13.01,2013-01-07 16:41:00,
2013-01-07 08:46:00,48.7,48.7,30.15,NNE,32,0.0,0.0,100,0.04,,OVC042,0.31,VWS V13.01,2013-01-07 16:46:00,
2013-01-07 08:51:00,48.8,48.8,30.15,ENE,76,0.0,2.0,100,0.04,,-RA,0.32,VWS V13.01,2013-01-07 16:51:00,
2013-01-07 08:56:00,48.8,48.8,30.16,SSE,150,1.0,2.0,100,0.05,,-RA,0.32,VWS V13.01,2013-01-07 16:56:00,
2013-01-07 09:01:00,48.9,48.9,30.16,SSE,160,0.0,1.0,100,0.03,,-RA,0.32,VWS V13.01,2013-01-07 17:01:00,
2013-01-07 09:06:00,49.0,49.0,30.17,ENE,67,0.0,2.0,100,0.03,,-RA,0.32,VWS V13.01,2013-01-07 17:06:00,
2013-01-07 09:11:00,49.0,49.0,30.16,SSE,157,0.0,2.0,100,0.04,,-RA,0.33,VWS V13.01,2013-01-07 17:11:00,
2013-01-07 09:16:00,49.1,49.1,30.17,NE,51,1.0,4.0,100,0.03,,-RA,0.33,VWS V13.01,2013-01-07 17:16:00,
2013-01-07 09:21:00,49.2,49.2,30.17,South,170,0.0,4.0,100,0.03,,-RA,0.33,VWS V13.01,2013-01-07 17:21:00,
2013-01-07 09:27:00,49.3,49.3,30.17,SSE,162,0.0,4.0,100,0.04,,-RA,0.34,VWS V13.01,2013-01-07 17:27:00,
2013-01-07 09:32:00,49.4,49.4,30.17,South,175,3.0,3.0,100,0.03,,-RA,0.34,VWS V13.01,2013-01-07 17:32:00,
2013-01-07 09:37:00,49.5,49.5,30.17,North,10,0.0,3.0,100,0.03,,-RA,0.34,VWS V13.01,2013-01-07 17:37:00,
2013-01-07 09:42:00,49.6,49.6,30.17,North,10,0.0,3.0,100,0.04,,,0.35,VWS V13.01,2013-01-07 17:42:00,
2013-01-07 09:47:00,49.6,49.6,30.18,North,10,0.0,0.0,100,0.04,,,0.35,VWS V13.01,2013-01-07 17:47:00,
2013-01-07 09:52:00,49.6,49.6,30.18,North,11,0.0,2.0,100,0.04,,,0.35,VWS V13.01,2013-01-07 17:52:00,
2013-01-07 09:57:00,49.7,49.7,30.18,West,275,0.0,2.0,100,0.05,,,0.36,VWS V13.01,2013-01-07 17:57:00,
2013-01-07 10:02:00,49.7,49.7,30.19,West,275,0.0,0.0,100,0.04,,,0.36,VWS V13.01,2013-01-07 18:02:00,
2013-01-07 10:07:00,49.8,49.8,30.19,South,187,1.0,3.0,100,0.05,,,0.37,VWS V13.01,2013-01-07 18:07:00,
2013-01-07 10:13:00,49.9,49.9,30.19,NE,38,0.0,3.0,100,0.05,,,0.37,VWS V13.01,2013-01-07 18:13:00,
2013-01-07 10:18:00,49.9,49.9,30.19,NNE,18,0.0,1.0,100,0.04,,,0.37,VWS V13.01,2013-01-07 18:18:00,
2013-01-07 10:23:00,50.0,50.0,30.19,NW,317,0.0,1.0,100,0.05,,,0.38,VWS V13.01,2013-01-07 18:23:00,
2013-01-07 10:28:00,50.0,50.0,30.20,NW,316,0.0,2.0,100,0.05,,,0.38,VWS V13.01,2013-01-07 18:28:00,
2013-01-07 10:33:00,50.0,50.0,30.20,NW,321,0.0,2.0,100,0.04,,,0.38,VWS V13.01,2013-01-07 18:33:00,
2013-01-07 10:38:00,49.9,49.9,30.20,West,267,0.0,3.0,100,0.05,,,0.39,VWS V13.01,2013-01-07 18:38:00,
2013-01-07 10:43:00,50.0,50.0,30.20,West,267,0.0,3.0,100,0.05,,OVC016,0.39,VWS V13.01,2013-01-07 18:43:00,
2013-01-07 10:48:00,50.1,50.1,30.20,WNW,285,0.0,2.0,100,0.04,,OVC016,0.39,VWS V13.01,2013-01-07 18:48:00,
2013-01-07 10:53:00,50.2,50.2,30.20,WNW,285,0.0,2.0,100,0.04,,OVC016,0.39,VWS V13.01,2013-01-07 18:53:00,
2013-01-07 10:58:00,50.3,50.3,30.21,WNW,285,0.0,2.0,100,0.05,,OVC016,0.40,VWS V13.01,2013-01-07 18:58:00,
2013-01-07 11:04:00,50.4,50.4,30.21,NW,319,0.0,1.0,100,0.04,,OVC016,0.40,VWS V13.01,2013-01-07 19:04:00,
2013-01-07 11:09:00,50.5,50.5,30.21,NW,319,0.0,1.0,100,0.05,,OVC016,0.41,VWS V13.01,2013-01-07 19:09:00,
2013-01-07 11:14:00,50.7,50.7,30.21,NW,319,0.0,1.0,100,0.05,,OVC016,0.41,VWS V13.01,2013-01-07 19:14:00,
2013-01-07 11:19:00,50.9,50.9,30.20,WSW,254,0.0,2.0,100,0.04,,OVC016,0.41,VWS V13.01,2013-01-07 19:19:00,
2013-01-07 11:24:00,50.9,50.9,30.20,SW,220,2.0,5.0,100,0.04,,OVC016,0.41,VWS V13.01,2013-01-07 19:24:00,
2013-01-07 11:29:00,50.8,50.8,30.20,SSW,202,1.0,5.0,100,0.05,,OVC016,0.42,VWS V13.01,2013-01-07 19:29:00,
2013-01-07 11:34:00,50.9,50.9,30.20,SSE,165,2.0,4.0,100,0.04,,OVC016,0.42,VWS V13.01,2013-01-07 19:34:00,
2013-01-07 11:39:00,50.9,50.9,30.20,South,180,0.0,4.0,100,0.05,,OVC050,0.43,VWS V13.01,2013-01-07 19:39:00,
2013-01-07 11:44:00,51.0,51.0,30.20,ESE,123,0.0,0.0,100,0.05,,OVC050,0.43,VWS V13.01,2013-01-07 19:44:00,
2013-01-07 11:49:00,51.0,51.0,30.20,North,360,0.0,2.0,100,0.04,,OVC050,0.43,VWS V13.01,2013-01-07 19:49:00,
2013-01-07 11:55:00,51.2,51.2,30.20,SE,137,3.0,3.0,100,0.04,,OVC050,0.43,VWS V13.01,2013-01-07 19:55:00,
2013-01-07 12:00:00,51.2,51.2,30.19,South,190,1.0,2.0,100,0.04,,OVC050,0.43,VWS V13.01,2013-01-07 20:00:00,
2013-01-07 12:05:00,51.3,51.3,30.19,SW,214,0.0,3.0,100,0.03,,OVC050,0.43,VWS V13.01,2013-01-07 20:05:00,
2013-01-07 12:10:00,51.4,51.4,30.19,SE,132,0.0,3.0,100,0.04,,OVC050,0.44,VWS V13.01,2013-01-07 20:10:00,
2013-01-07 12:15:00,51.5,51.5,30.20,South,173,0.0,0.0,100,0.04,,OVC050,0.44,VWS V13.01,2013-01-07 20:15:00,
2013-01-07 12:19:00,51.6,51.6,30.20,South,173,0.0,0.0,100,0.03,,OVC050,0.44,VWS V13.01,2013-01-07 20:19:00,
2013-01-07 12:24:00,51.7,51.7,30.19,SSE,148,3.0,3.0,100,0.03,,OVC050,0.44,VWS V13.01,2013-01-07 20:24:00,
2013-01-07 12:29:00,51.7,51.7,30.19,South,183,0.0,0.0,100,0.03,,OVC050,0.44,VWS V13.01,2013-01-07 20:29:00,
2013-01-07 12:34:00,51.8,51.8,30.19,SSW,193,3.0,4.0,100,0.02,,OVC050,0.44,VWS V13.01,2013-01-07 20:34:00,
2013-01-07 12:39:00,51.6,51.6,30.19,SW,217,2.0,5.0,100,0.02,,OVC050,0.44,VWS V13.01,2013-01-07 20:39:00,
2013-01-07 12:44:00,51.6,51.6,30.19,SE,129,1.0,1.0,100,0.02,,OVC050,0.44,VWS V13.01,2013-01-07 20:44:00,
2013-01-07 12:50:00,51.4,51.4,30.19,SE,140,0.0,13.0,100,0.01,,BKN050,0.44,VWS V13.01,2013-01-07 20:50:00,
2013-01-07 12:55:00,51.3,51.3,30.20,SSE,158,0.0,13.0,100,0.01,,BKN050,0.45,VWS V13.01,2013-01-07 20:55:00,
2013-01-07 13:00:00,51.2,51.2,30.20,SSE,159,0.0,0.0,100,0.02,,BKN050,0.45,VWS V13.01,2013-01-07 21:00:00,
2013-01-07 13:05:00,51.2,51.2,30.20,SSE,158,0.0,0.0,100,0.02,,BKN050,0.45,VWS V13.01,2013-01-07 21:05:00,
2013-01-07 13:10:00,51.2,51.2,30.20,SSE,159,0.0,0.0,100,0.02,,BKN200,0.45,VWS V13.01,2013-01-07 21:10:00,
2013-01-07 13:15:00,51.2,51.2,30.19,SSE,158,0.0,0.0,100,0.02,,BKN200,0.45,VWS V13.01,2013-01-07 21:15:00,
2013-01-07 13:20:00,51.2,51.2,30.19,SSE,158,0.0,0.0,100,0.01,,BKN200,0.45,VWS V13.01,2013-01-07 21:20:00,
2013-01-07 13:25:00,51.2,51.2,30.20,SSE,158,0.0,0.0,100,0.01,,BKN200,0.45,VWS V13.01,2013-01-07 21:25:00,
2013-01-07 13:30:00,51.2,51.2,30.20,SSE,161,0.0,0.0,100,0.01,,BKN200,0.45,VWS V13.01,2013-01-07 21:30:00,
2013-01-07 13:35:00,51.1,51.1,30.20,South,178,2.0,4.0,100,0.02,,BKN200,0.46,VWS V13.01,2013-01-07 21:35:00,
2013-01-07 13:40:00,51.1,51.1,30.20,SE,134,5.0,5.0,100,0.02,,BKN200,0.46,VWS V13.01,2013-01-07 21:40:00,
2013-01-07 13:45:00,51.0,51.0,30.21,SSE,160,0.0,3.0,100,0.02,,BKN200,0.46,VWS V13.01,2013-01-07 21:45:00,
2013-01-07 13:50:00,51.1,51.1,30.21,SSE,156,0.0,3.0,100,0.02,,BKN200,0.46,VWS V13.01,2013-01-07 21:50:00,
2013-01-07 13:55:00,51.1,51.1,30.21,SSE,156,0.0,3.0,100,0.02,,BKN200,0.46,VWS V13.01,2013-01-07 21:55:00,
2013-01-07 14:00:00,51.2,51.2,30.21,SSE,155,0.0,0.0,100,0.02,,BKN200,0.47,VWS V13.01,2013-01-07 22:00:00,
2013-01-07 14:05:00,51.2,51.2,30.21,SSE,155,0.0,1.0,100,0.02,,BKN200,0.47,VWS V13.01,2013-01-07 22:05:00,
2013-01-07 14:10:00,51.2,51.2,30.22,SE,144,0.0,1.0,100,0.03,,BKN200,0.48,VWS V13.01,2013-01-07 22:10:00,
2013-01-07 14:15:00,51.3,51.3,30.22,SE,144,0.0,0.0,100,0.03,,BKN200,0.48,VWS V13.01,2013-01-07 22:15:00,
2013-01-07 14:21:00,51.3,51.3,30.22,SE,145,2.0,4.0,100,0.03,,BKN200,0.48,VWS V13.01,2013-01-07 22:21:00,
2013-01-07 14:26:00,51.2,51.2,30.22,SSE,153,0.0,4.0,100,0.03,,BKN200,0.48,VWS V13.01,2013-01-07 22:26:00,
2013-01-07 14:31:00,51.2,51.2,30.22,SSE,159,0.0,2.0,100,0.04,,BKN200,0.49,VWS V13.01,2013-01-07 22:31:00,
2013-01-07 14:36:00,51.2,51.2,30.22,ESE,117,0.0,2.0,100,0.04,,BKN200,0.49,VWS V13.01,2013-01-07 22:36:00,
2013-01-07 14:41:00,51.2,50.9,30.22,ESE,103,0.0,2.0,99,0.04,,BKN200,0.49,VWS V13.01,2013-01-07 22:41:00,
2013-01-07 14:46:00,51.2,51.2,30.22,SSE,155,0.0,0.0,100,0.03,,BKN200,0.49,VWS V13.01,2013-01-07 22:46:00,
2013-01-07 14:51:00,51.1,50.8,30.22,SSW,204,0.0,2.0,99,0.03,,BKN200,0.49,VWS V13.01,2013-01-07 22:51:00,
2013-01-07 14:56:00,51.1,50.8,30.24,SSW,206,0.0,2.0,99,0.03,,BKN200,0.49,VWS V13.01,2013-01-07 22:56:00,
2013-01-07 15:01:00,51.0,50.7,30.24,SSW,205,0.0,2.0,99,0.03,,BKN200,0.49,VWS V13.01,2013-01-07 23:01:00,
2013-01-07 15:06:00,51.0,51.0,30.24,South,181,4.0,4.0,100,0.03,,BKN200,0.49,VWS V13.01,2013-01-07 23:06:00,
2013-01-07 15:11:00,50.9,50.6,30.24,SW,223,0.0,5.0,99,0.03,,BKN200,0.49,VWS V13.01,2013-01-07 23:11:00,
2013-01-07 15:17:00,50.8,50.5,30.24,SW,223,0.0,0.0,99,0.01,,BKN200,0.49,VWS V13.01,2013-01-07 23:17:00,
2013-01-07 15:22:00,50.7,50.4,30.24,SW,223,0.0,0.0,99,0.01,,BKN200,0.49,VWS V13.01,2013-01-07 23:22:00,
2013-01-07 15:27:00,50.5,50.2,30.23,SW,223,0.0,0.0,99,0.01,,BKN200,0.49,VWS V13.01,2013-01-07 23:27:00,
2013-01-07 15:32:00,50.4,50.1,30.24,South,190,0.0,1.0,99,0.00,,BKN200,0.49,VWS V13.01,2013-01-07 23:32:00,
2013-01-07 15:37:00,50.4,50.4,30.23,South,190,0.0,1.0,100,0.00,,BKN200,0.49,VWS V13.01,2013-01-07 23:37:00,
2013-01-07 15:42:00,50.3,50.3,30.23,South,190,0.0,1.0,100,0.00,,BKN170,0.49,VWS V13.01,2013-01-07 23:42:00,
2013-01-07 15:47:00,50.2,50.2,30.23,South,190,0.0,0.0,100,0.00,,BKN170,0.49,VWS V13.01,2013-01-07 23:47:00,
2013-01-07 15:52:00,50.2,50.2,30.23,South,190,0.0,0.0,100,0.00,,BKN170,0.49,VWS V13.01,2013-01-07 23:52:00,
2013-01-07 15:57:00,50.2,50.2,30.24,South,190,0.0,0.0,100,0.00,,BKN170,0.49,VWS V13.01,2013-01-07 23:57:00,
2013-01-07 16:02:00,50.1,50.1,30.24,South,190,0.0,0.0,100,0.00,,BKN170,0.49,VWS V13.01,2013-01-08 00:02:00,
2013-01-07 16:07:00,50.1,50.1,30.25,South,190,0.0,0.0,100,0.00,,BKN170,0.49,VWS V13.01,2013-01-08 00:07:00,
2013-01-07 16:12:00,50.0,50.0,30.25,South,190,0.0,0.0,100,0.00,,OVC160,0.49,VWS V13.01,2013-01-08 00:12:00,
2013-01-07 16:17:00,49.9,49.9,30.25,South,190,1.0,1.0,100,0.00,,OVC160,0.49,VWS V13.01,2013-01-08 00:17:00,
2013-01-07 16:22:00,49.8,49.8,30.25,South,190,0.0,1.0,100,0.00,,OVC160,0.49,VWS V13.01,2013-01-08 00:22:00,
2013-01-07 16:27:00,49.7,49.7,30.25,South,190,0.0,1.0,100,0.00,,OVC160,0.49,VWS V13.01,2013-01-08 00:27:00,
2013-01-07 16:32:00,49.6,49.6,30.25,South,190,0.0,0.0,100,0.00,,OVC160,0.49,VWS V13.01,2013-01-08 00:32:00,
2013-01-07 16:37:00,49.6,49.6,30.25,South,190,0.0,0.0,100,0.00,,OVC160,0.49,VWS V13.01,2013-01-08 00:37:00,
2013-01-07 16:42:00,49.6,49.6,30.25,South,190,0.0,0.0,100,0.00,,OVC160,0.49,VWS V13.01,2013-01-08 00:42:00,
2013-01-07 16:48:00,49.5,49.5,30.25,South,190,0.0,0.0,100,0.00,,OVC160,0.49,VWS V13.01,2013-01-08 00:48:00,
2013-01-07 16:53:00,49.5,49.5,30.24,South,190,0.0,0.0,100,0.00,,OVC160,0.49,VWS V13.01,2013-01-08 00:53:00,
2013-01-07 16:58:00,49.4,49.4,30.24,South,190,0.0,0.0,100,0.00,,OVC160,0.49,VWS V13.01,2013-01-08 00:58:00,
2013-01-07 17:03:00,49.3,49.3,30.23,South,190,0.0,1.0,100,0.00,,OVC090,0.49,VWS V13.01,2013-01-08 01:03:00,
2013-01-07 17:08:00,49.2,49.2,30.22,SW,230,1.0,1.0,100,0.00,,OVC090,0.49,VWS V13.01,2013-01-08 01:08:00,
2013-01-07 17:13:00,49.1,49.1,30.23,SSW,202,0.0,3.0,100,0.00,,OVC090,0.49,VWS V13.01,2013-01-08 01:13:00,
2013-01-07 17:18:00,49.1,49.1,30.23,SSE,159,0.0,1.0,100,0.00,,OVC090,0.49,VWS V13.01,2013-01-08 01:18:00,
2013-01-07 17:23:00,49.1,49.1,30.24,SSE,159,0.0,1.0,100,0.00,,OVC090,0.49,VWS V13.01,2013-01-08 01:23:00,
2013-01-07 17:28:00,49.0,49.0,30.24,SSE,159,0.0,1.0,100,0.00,,OVC090,0.49,VWS V13.01,2013-01-08 01:28:00,
2013-01-07 17:33:00,49.0,49.0,30.23,SSE,159,0.0,0.0,100,0.00,,OVC090,0.49,VWS V13.01,2013-01-08 01:33:00,
2013-01-07 17:38:00,48.9,48.9,30.23,SSE,159,0.0,0.0,100,0.00,,OVC090,0.49,VWS V13.01,2013-01-08 01:38:00,
2013-01-07 17:43:00,48.8,48.8,30.24,SSE,159,0.0,1.0,100,0.00,,OVC090,0.49,VWS V13.01,2013-01-08 01:43:00,
2013-01-07 17:49:00,48.8,48.8,30.25,SSE,159,0.0,0.0,100,0.00,,OVC090,0.49,VWS V13.01,2013-01-08 01:49:00,
2013-01-07 17:54:00,48.8,48.8,30.25,SSE,159,0.0,0.0,100,0.00,,OVC090,0.49,VWS V13.01,2013-01-08 01:54:00,
2013-01-07 17:59:00,48.8,48.8,30.24,SSE,159,0.0,0.0,100,0.00,,OVC090,0.49,VWS V13.01,2013-01-08 01:59:00,
2013-01-07 18:04:00,48.7,48.7,30.25,SSE,159,0.0,0.0,100,0.00,,OVC090,0.49,VWS V13.01,2013-01-08 02:04:00,
2013-01-07 18:09:00,48.7,48.7,30.25,SSE,159,0.0,0.0,100,0.00,,OVC090,0.49,VWS V13.01,2013-01-08 02:09:00,
2013-01-07 18:14:00,48.6,48.6,30.25,SSE,159,0.0,1.0,100,0.00,,OVC090,0.49,VWS V13.01,2013-01-08 02:14:00,
2013-01-07 18:19:00,48.6,48.6,30.24,SW,215,0.0,2.0,100,0.01,,OVC090,0.50,VWS V13.01,2013-01-08 02:19:00,
2013-01-07 18:24:00,48.6,48.6,30.24,SW,215,0.0,2.0,100,0.01,,OVC090,0.50,VWS V13.01,2013-01-08 02:24:00,
2013-01-07 18:29:00,48.6,48.6,30.25,SW,215,0.0,2.0,100,0.01,,OVC090,0.50,VWS V13.01,2013-01-08 02:29:00,
2013-01-07 18:34:00,48.6,48.6,30.24,SW,215,1.0,1.0,100,0.01,,OVC090,0.50,VWS V13.01,2013-01-08 02:34:00,
2013-01-07 18:39:00,48.6,48.6,30.24,SW,215,0.0,2.0,100,0.01,,OVC090,0.50,VWS V13.01,2013-01-08 02:39:00,
2013-01-07 18:44:00,48.5,48.5,30.24,SW,215,0.0,0.0,100,0.01,,OVC090,0.50,VWS V13.01,2013-01-08 02:44:00,
2013-01-07 18:49:00,48.5,48.5,30.24,SW,215,0.0,0.0,100,0.01,,OVC090,0.50,VWS V13.01,2013-01-08 02:49:00,
2013-01-07 18:54:00,48.5,48.5,30.24,SW,215,0.0,0.0,100,0.01,,OVC090,0.50,VWS V13.01,2013-01-08 02:54:00,
2013-01-07 18:59:00,48.4,48.4,30.25,SW,215,0.0,0.0,100,0.01,,OVC090,0.50,VWS V13.01,2013-01-08 02:59:00,
2013-01-07 19:04:00,48.4,48.4,30.25,SW,215,0.0,0.0,100,0.01,,OVC090,0.50,VWS V13.01,2013-01-08 03:04:00,
2013-01-07 19:09:00,48.4,48.4,30.25,SW,215,0.0,2.0,100,0.01,,OVC090,0.50,VWS V13.01,2013-01-08 03:09:00,
2013-01-07 19:14:00,48.3,48.3,30.24,SW,215,0.0,0.0,100,0.01,,OVC090,0.50,VWS V13.01,2013-01-08 03:14:00,
2013-01-07 19:20:00,48.3,48.3,30.25,SW,215,0.0,0.0,100,0.01,,OVC090,0.50,VWS V13.01,2013-01-08 03:20:00,
2013-01-07 19:25:00,48.3,48.3,30.24,SW,215,0.0,0.0,100,0.01,,OVC090,0.50,VWS V13.01,2013-01-08 03:25:00,
2013-01-07 19:30:00,48.2,48.2,30.25,SW,215,0.0,0.0,100,0.01,,OVC090,0.50,VWS V13.01,2013-01-08 03:30:00,
2013-01-07 19:35:00,48.2,48.2,30.25,SW,215,0.0,0.0,100,0.00,,OVC090,0.50,VWS V13.01,2013-01-08 03:35:00,
2013-01-07 19:40:00,48.2,48.2,30.25,SW,215,0.0,0.0,100,0.00,,OVC015,0.50,VWS V13.01,2013-01-08 03:40:00,
2013-01-07 19:45:00,48.2,48.2,30.25,SW,215,0.0,0.0,100,0.00,,OVC015,0.50,VWS V13.01,2013-01-08 03:45:00,
2013-01-07 19:50:00,48.1,48.1,30.25,SW,215,0.0,0.0,100,0.00,,OVC020,0.50,VWS V13.01,2013-01-08 03:50:00,
2013-01-07 19:55:00,48.1,48.1,30.25,SW,215,0.0,0.0,100,0.00,,OVC020,0.50,VWS V13.01,2013-01-08 03:55:00,
2013-01-07 20:00:00,48.1,48.1,30.26,SW,215,0.0,0.0,100,0.00,,OVC020,0.50,VWS V13.01,2013-01-08 04:00:00,
2013-01-07 20:05:00,48.1,48.1,30.25,SW,215,0.0,0.0,100,0.00,,OVC020,0.50,VWS V13.01,2013-01-08 04:05:00,
2013-01-07 20:10:00,48.1,48.1,30.25,SW,215,1.0,2.0,100,0.01,,OVC020,0.51,VWS V13.01,2013-01-08 04:10:00,
2013-01-07 20:16:00,48.0,48.0,30.25,SW,215,0.0,0.0,100,0.01,,OVC020,0.51,VWS V13.01,2013-01-08 04:16:00,
2013-01-07 20:21:00,48.0,48.0,30.25,SW,215,0.0,0.0,100,0.01,,OVC020,0.51,VWS V13.01,2013-01-08 04:21:00,
2013-01-07 20:26:00,48.0,48.0,30.25,SW,215,0.0,0.0,100,0.01,,OVC020,0.51,VWS V13.01,2013-01-08 04:26:00,
2013-01-07 20:31:00,48.0,48.0,30.25,SW,215,0.0,0.0,100,0.01,,OVC020,0.51,VWS V13.01,2013-01-08 04:31:00,
2013-01-07 20:36:00,47.9,47.9,30.25,SW,215,0.0,1.0,100,0.01,,OVC020,0.51,VWS V13.01,2013-01-08 04:36:00,
2013-01-07 20:41:00,47.9,47.9,30.25,SW,215,0.0,1.0,100,0.01,,OVC020,0.51,VWS V13.01,2013-01-08 04:41:00,
2013-01-07 20:46:00,47.9,47.9,30.25,SW,215,0.0,0.0,100,0.01,,OVC020,0.51,VWS V13.01,2013-01-08 04:46:00,
2013-01-07 20:51:00,47.9,47.9,30.26,SW,215,0.0,0.0,100,0.01,,OVC020,0.51,VWS V13.01,2013-01-08 04:51:00,
2013-01-07 20:56:00,47.9,47.9,30.25,SW,215,0.0,0.0,100,0.01,,OVC020,0.51,VWS V13.01,2013-01-08 04:56:00,
2013-01-07 21:00:00,47.8,47.8,30.25,SW,215,0.0,0.0,100,0.01,,OVC020,0.51,VWS V13.01,2013-01-08 05:00:00,
2013-01-07 21:01:00,47.8,47.8,30.25,SW,215,0.0,0.0,100,0.01,,OVC020,0.51,VWS V13.01,2013-01-08 05:01:00,
2013-01-07 21:02:00,47.8,47.8,30.25,SW,215,0.0,0.0,100,0.01,,OVC020,0.51,VWS V13.01,2013-01-08 05:02:00,
2013-01-07 21:07:00,47.8,47.8,30.26,SW,215,0.0,0.0,100,0.01,,OVC020,0.51,VWS V13.01,2013-01-08 05:07:00,
2013-01-07 21:12:00,47.8,47.8,30.26,SW,215,0.0,0.0,100,0.01,,OVC020,0.51,VWS V13.01,2013-01-08 05:12:00,
2013-01-07 21:17:00,47.8,47.8,30.26,SW,215,0.0,0.0,100,0.00,,OVC020,0.51,VWS V13.01,2013-01-08 05:17:00,
2013-01-07 21:23:00,47.7,47.7,30.25,SW,215,0.0,0.0,100,0.00,,OVC020,0.51,VWS V13.01,2013-01-08 05:23:00,
2013-01-07 21:28:00,47.7,47.7,30.26,SW,215,0.0,0.0,100,0.00,,OVC020,0.51,VWS V13.01,2013-01-08 05:28:00,
2013-01-07 21:33:00,47.7,47.7,30.25,SW,215,0.0,0.0,100,0.00,,OVC020,0.51,VWS V13.01,2013-01-08 05:33:00,
2013-01-07 21:38:00,47.7,47.7,30.25,SW,215,0.0,0.0,100,0.00,,OVC020,0.51,VWS V13.01,2013-01-08 05:38:00,
2013-01-07 21:43:00,47.6,47.6,30.26,SW,215,0.0,0.0,100,0.00,,OVC020,0.51,VWS V13.01,2013-01-08 05:43:00,
2013-01-07 21:48:00,47.6,47.6,30.26,SW,215,0.0,0.0,100,0.00,,OVC020,0.51,VWS V13.01,2013-01-08 05:48:00,
2013-01-07 21:53:00,47.6,47.6,30.26,SW,215,0.0,0.0,100,0.00,,OVC020,0.51,VWS V13.01,2013-01-08 05:53:00,
2013-01-07 21:58:00,47.6,47.6,30.26,SW,215,0.0,2.0,100,0.00,,OVC020,0.51,VWS V13.01,2013-01-08 05:58:00,
2013-01-07 22:03:00,47.6,47.6,30.26,SSE,159,0.0,1.0,100,0.00,,OVC020,0.51,VWS V13.01,2013-01-08 06:03:00,
2013-01-07 22:08:00,47.5,47.5,30.25,SSE,159,0.0,1.0,100,0.00,,OVC020,0.51,VWS V13.01,2013-01-08 06:08:00,
2013-01-07 22:13:00,47.5,47.5,30.25,SSE,159,0.0,1.0,100,0.00,,OVC020,0.51,VWS V13.01,2013-01-08 06:13:00,
2013-01-07 22:18:00,47.4,47.4,30.25,SSE,159,0.0,0.0,100,0.00,,OVC020,0.51,VWS V13.01,2013-01-08 06:18:00,
2013-01-07 22:23:00,47.4,47.4,30.25,SSE,159,0.0,0.0,100,0.00,,OVC020,0.51,VWS V13.01,2013-01-08 06:23:00,
2013-01-07 22:28:00,47.4,47.4,30.25,SSE,159,0.0,0.0,100,0.00,,OVC020,0.51,VWS V13.01,2013-01-08 06:28:00,
2013-01-07 22:34:00,47.3,47.3,30.26,SSE,159,0.0,0.0,100,0.00,,OVC020,0.51,VWS V13.01,2013-01-08 06:34:00,
2013-01-07 22:39:00,47.3,47.3,30.25,SSE,159,0.0,0.0,100,0.00,,OVC020,0.51,VWS V13.01,2013-01-08 06:39:00,
2013-01-07 22:44:00,47.3,47.3,30.25,SSE,159,0.0,0.0,100,0.00,,OVC024,0.51,VWS V13.01,2013-01-08 06:44:00,
2013-01-07 22:49:00,47.3,47.3,30.25,SSE,159,0.0,0.0,100,0.00,,OVC024,0.51,VWS V13.01,2013-01-08 06:49:00,
2013-01-07 22:54:00,47.3,47.3,30.26,SSE,159,0.0,0.0,100,0.01,,OVC024,0.52,VWS V13.01,2013-01-08 06:54:00,
2013-01-07 22:59:00,47.3,47.3,30.25,SSE,159,0.0,0.0,100,0.01,,OVC024,0.52,VWS V13.01,2013-01-08 06:59:00,
2013-01-07 23:04:00,47.3,47.3,30.25,SSE,159,0.0,0.0,100,0.01,,OVC024,0.52,VWS V13.01,2013-01-08 07:04:00,
2013-01-07 23:09:00,47.2,47.2,30.25,SSE,159,0.0,0.0,100,0.01,,OVC024,0.52,VWS V13.01,2013-01-08 07:09:00,
2013-01-07 23:14:00,47.2,47.2,30.25,SSE,159,0.0,0.0,100,0.01,,OVC024,0.52,VWS V13.01,2013-01-08 07:14:00,
2013-01-07 23:19:00,47.2,47.2,30.25,SSE,159,0.0,0.0,100,0.01,,OVC024,0.52,VWS V13.01,2013-01-08 07:19:00,
2013-01-07 23:24:00,47.2,47.2,30.26,SE,126,1.0,2.0,100,0.01,,OVC024,0.52,VWS V13.01,2013-01-08 07:24:00,
2013-01-07 23:29:00,47.2,47.2,30.25,ENE,71,0.0,0.0,100,0.01,,OVC024,0.52,VWS V13.01,2013-01-08 07:29:00,
2013-01-07 23:34:00,47.2,47.2,30.25,ENE,71,0.0,0.0,100,0.01,,OVC024,0.52,VWS V13.01,2013-01-08 07:34:00,
2013-01-07 23:40:00,47.2,47.2,30.25,ENE,71,0.0,0.0,100,0.01,,OVC025,0.52,VWS V13.01,2013-01-08 07:40:00,
2013-01-07 23:45:00,47.2,47.2,30.25,ENE,71,0.0,0.0,100,0.01,,OVC025,0.52,VWS V13.01,2013-01-08 07:45:00,
2013-01-07 23:50:00,47.2,47.2,30.25,ENE,71,0.0,0.0,100,0.01,,OVC025,0.52,VWS V13.01,2013-01-08 07:50:00,
2013-01-07 23:55:00,47.2,47.2,30.25,ENE,71,0.0,0.0,100,0.01,,OVC025,0.52,VWS V13.01,2013-01-08 07:55:00,